Time;durP1;ratioP1;P1;durP2;ratioP2;P2;SDS_P1;SDS_P2;PMS_P1;PMS_P2;Temp;Humidity;BMP_temperature;BMP_pressure;BME280_temperature;BME280_humidity;BME280_pressure;Samples;Min_cycle;Max_cycle;Signal;HPM_P1;HPM_P2
2022/06/29 00:02:10;;;;;;;;;;;15.90;99.90;;;;;;5053732;28;20636;-78
2022/06/29 00:04:36;;;;;;;;;;;16.10;99.90;;;;;;5056660;28;19940;-78
2022/06/29 00:07:01;;;;;;;;;;;16.10;99.90;;;;;;5060536;28;19928;-78
2022/06/29 00:09:27;;;;;;;;;;;16.00;99.90;;;;;;5051756;28;20812;-78
2022/06/29 00:11:53;;;;;;;;;;;15.90;99.90;;;;;;5052432;28;20000;-78
2022/06/29 00:14:19;;;;;;;;;;;15.90;99.90;;;;;;5051616;28;19929;-78
2022/06/29 00:16:44;;;;;;;;;;;15.80;99.90;;;;;;5048727;28;19928;-78
2022/06/29 00:19:10;;;;;;;;;;;15.80;99.90;;;;;;5044155;28;19929;-78
2022/06/29 00:21:36;;;;;;;;;;;15.80;99.90;;;;;;5056834;28;19940;-78
2022/06/29 00:24:01;;;;;;;;;;;15.70;99.90;;;;;;5053864;28;19928;-78
2022/06/29 00:26:27;;;;;;;;;;;15.60;99.90;;;;;;5051231;28;20004;-78
2022/06/29 00:28:53;;;;;;;;;;;15.60;99.90;;;;;;5047720;28;19980;-78
2022/06/29 00:31:19;;;;;;;;;;;15.50;99.90;;;;;;5056349;28;20314;-78
2022/06/29 00:33:44;;;;;;;;;;;15.40;99.90;;;;;;5044537;28;19929;-78
2022/06/29 00:36:10;;;;;;;;;;;15.50;99.90;;;;;;5054281;28;19982;-78
2022/06/29 00:38:36;;;;;;;;;;;15.50;99.90;;;;;;5056033;28;19932;-78
2022/06/29 00:41:02;;;;;;;;;;;15.30;99.90;;;;;;5048897;28;19935;-78
2022/06/29 00:43:28;;;;;;;;;;;15.30;99.90;;;;;;5046662;28;22051;-78
2022/06/29 00:45:54;;;;;;;;;;;15.20;99.90;;;;;;5037086;28;19928;-78
2022/06/29 00:48:19;;;;;;;;;;;15.20;99.90;;;;;;5053898;28;19978;-78
2022/06/29 00:50:46;;;;;;;;;;;15.10;99.90;;;;;;5034646;28;19924;-78
2022/06/29 00:53:14;;;;;;;;;;;15.40;99.90;;;;;;5035485;28;20832;-78
2022/06/29 00:55:41;;;;;;;;;;;15.40;99.90;;;;;;5051046;28;20014;-78
2022/06/29 00:58:08;;;;;;;;;;;15.30;99.90;;;;;;5049082;28;19936;-78
2022/06/29 01:00:34;;;;;;;;;;;15.40;99.90;;;;;;5047312;28;19939;-78
2022/06/29 01:03:00;;;;;;;;;;;15.40;99.90;;;;;;5058759;28;19946;-78
2022/06/29 01:05:26;;;;;;;;;;;15.40;99.90;;;;;;5054829;28;19941;-78
2022/06/29 01:07:52;;;;;;;;;;;15.50;99.90;;;;;;5055359;28;20023;-78
2022/06/29 01:10:19;;;;;;;;;;;15.50;99.90;;;;;;5053779;28;20125;-78
2022/06/29 01:12:47;;;;;;;;;;;15.60;99.90;;;;;;5057188;28;19935;-78
2022/06/29 01:15:13;;;;;;;;;;;15.60;99.90;;;;;;5047857;28;19980;-78
2022/06/29 01:17:38;;;;;;;;;;;15.60;99.90;;;;;;5034224;28;19936;-78
2022/06/29 01:20:05;;;;;;;;;;;15.50;99.90;;;;;;5053570;28;20011;-78
2022/06/29 01:22:30;;;;;;;;;;;15.60;99.90;;;;;;5059463;28;19928;-78
2022/06/29 01:24:56;;;;;;;;;;;15.60;99.90;;;;;;5052524;28;19933;-78
2022/06/29 01:27:24;;;;;;;;;;;15.50;99.90;;;;;;5045554;28;19951;-78
2022/06/29 01:29:50;;;;;;;;;;;15.40;99.90;;;;;;5052343;28;20047;-78
2022/06/29 01:32:16;;;;;;;;;;;15.30;99.90;;;;;;5052067;28;20138;-77
2022/06/29 01:34:42;;;;;;;;;;;15.40;99.90;;;;;;5055630;28;19977;-78
2022/06/29 01:37:08;;;;;;;;;;;15.30;99.90;;;;;;5057135;28;19928;-78
2022/06/29 01:39:34;;;;;;;;;;;15.40;99.90;;;;;;5049841;28;19947;-78
2022/06/29 01:41:59;;;;;;;;;;;15.30;99.90;;;;;;5058841;28;19951;-78
2022/06/29 01:44:25;;;;;;;;;;;15.30;99.90;;;;;;5053023;28;20749;-78
2022/06/29 01:46:51;;;;;;;;;;;15.20;99.90;;;;;;5053181;28;19932;-78
2022/06/29 01:49:17;;;;;;;;;;;15.10;99.90;;;;;;5043939;28;19986;-78
2022/06/29 01:51:42;;;;;;;;;;;15.00;99.90;;;;;;5053610;28;19971;-77
2022/06/29 01:54:08;;;;;;;;;;;15.00;99.90;;;;;;5047590;28;19929;-78
2022/06/29 01:56:34;;;;;;;;;;;15.00;99.90;;;;;;5054274;28;20003;-78
2022/06/29 01:58:59;;;;;;;;;;;15.00;99.90;;;;;;5032911;28;19928;-78
2022/06/29 02:01:25;;;;;;;;;;;14.90;99.90;;;;;;5037083;28;20364;-77
2022/06/29 02:03:51;;;;;;;;;;;14.80;99.90;;;;;;5054307;28;19928;-77
2022/06/29 02:06:17;;;;;;;;;;;14.90;99.90;;;;;;5031378;28;20818;-78
2022/06/29 02:08:44;;;;;;;;;;;14.90;99.90;;;;;;5034959;28;19928;-79
2022/06/29 02:11:10;;;;;;;;;;;15.00;99.90;;;;;;5057882;28;20209;-79
2022/06/29 02:13:35;;;;;;;;;;;14.90;99.90;;;;;;5053737;28;19928;-78
2022/06/29 02:16:01;;;;;;;;;;;14.90;99.90;;;;;;5057952;28;19977;-79
2022/06/29 02:18:27;;;;;;;;;;;14.90;99.90;;;;;;5054322;28;19929;-78
2022/06/29 02:20:53;;;;;;;;;;;14.90;99.90;;;;;;5040065;28;19937;-78
2022/06/29 02:23:20;;;;;;;;;;;14.80;99.90;;;;;;5040202;28;19927;-78
2022/06/29 02:25:46;;;;;;;;;;;14.80;99.90;;;;;;5032158;28;19936;-78
2022/06/29 02:28:12;;;;;;;;;;;14.70;99.90;;;;;;5056099;28;21877;-78
2022/06/29 02:36:07;;;;;;;;;;;14.60;99.90;;;;;;5037033;28;20743;-78
2022/06/29 02:38:33;;;;;;;;;;;14.60;99.90;;;;;;5057207;28;19939;-78
2022/06/29 02:40:59;;;;;;;;;;;14.60;99.90;;;;;;5034878;28;20732;-78
2022/06/29 02:43:25;;;;;;;;;;;14.60;99.90;;;;;;5058810;28;19935;-78
2022/06/29 02:45:51;;;;;;;;;;;14.60;99.90;;;;;;5053270;28;19929;-78
2022/06/29 02:48:17;;;;;;;;;;;14.70;99.90;;;;;;5057052;28;19928;-78
2022/06/29 02:50:42;;;;;;;;;;;14.60;99.90;;;;;;5053345;28;20508;-78
2022/06/29 02:53:08;;;;;;;;;;;14.60;99.90;;;;;;5053836;28;19928;-78
2022/06/29 02:55:34;;;;;;;;;;;14.50;99.90;;;;;;5053143;28;19932;-79
2022/06/29 02:57:59;;;;;;;;;;;14.50;99.90;;;;;;5035027;28;19928;-79
2022/06/29 03:00:25;;;;;;;;;;;14.50;99.90;;;;;;5039609;28;19986;-79
2022/06/29 03:02:51;;;;;;;;;;;14.40;99.90;;;;;;5054286;28;19935;-79
2022/06/29 03:05:17;;;;;;;;;;;14.20;99.90;;;;;;5056125;28;19932;-79
2022/06/29 03:07:42;;;;;;;;;;;14.40;99.90;;;;;;5015089;28;20151;-79
2022/06/29 03:10:08;;;;;;;;;;;14.40;99.90;;;;;;5057661;28;20424;-79
2022/06/29 03:12:34;;;;;;;;;;;14.40;99.90;;;;;;5058824;28;19934;-79
2022/06/29 03:14:59;;;;;;;;;;;14.40;99.90;;;;;;5053961;28;19929;-79
2022/06/29 03:17:25;;;;;;;;;;;14.50;99.90;;;;;;5060171;28;19957;-79
2022/06/29 03:19:51;;;;;;;;;;;14.60;99.90;;;;;;5016664;28;19990;-79
2022/06/29 03:22:17;;;;;;;;;;;14.60;99.90;;;;;;5054057;28;20043;-80
2022/06/29 03:24:42;;;;;;;;;;;14.50;99.90;;;;;;5057813;28;20007;-79
2022/06/29 03:27:08;;;;;;;;;;;14.60;99.90;;;;;;5053394;28;19943;-79
2022/06/29 03:29:34;;;;;;;;;;;14.60;99.90;;;;;;5035157;28;19928;-79
2022/06/29 03:31:59;;;;;;;;;;;14.60;99.90;;;;;;5052991;28;19928;-79
2022/06/29 03:34:25;;;;;;;;;;;14.50;99.90;;;;;;5055593;28;19928;-79
2022/06/29 03:36:51;;;;;;;;;;;14.50;99.90;;;;;;5051437;28;20385;-79
2022/06/29 03:39:16;;;;;;;;;;;14.50;99.90;;;;;;5049841;28;20025;-79
2022/06/29 03:41:42;;;;;;;;;;;14.50;99.90;;;;;;5037493;28;20196;-79
2022/06/29 03:44:08;;;;;;;;;;;14.50;99.90;;;;;;5035188;28;20575;-79
2022/06/29 03:46:33;;;;;;;;;;;14.50;99.90;;;;;;5057147;28;19935;-79
2022/06/29 03:48:59;;;;;;;;;;;14.50;99.90;;;;;;5035206;28;19929;-79
2022/06/29 03:51:25;;;;;;;;;;;14.50;99.90;;;;;;5035538;28;19932;-79
2022/06/29 03:53:51;;;;;;;;;;;14.50;99.90;;;;;;5033001;28;20389;-79
2022/06/29 03:56:17;;;;;;;;;;;14.40;99.90;;;;;;5054950;28;19974;-79
2022/06/29 03:58:43;;;;;;;;;;;14.30;99.90;;;;;;5049836;28;20018;-79
2022/06/29 04:01:09;;;;;;;;;;;14.30;99.90;;;;;;5001101;28;20032;-78
2022/06/29 04:03:35;;;;;;;;;;;14.30;99.90;;;;;;5056771;28;20057;-80
2022/06/29 04:06:01;;;;;;;;;;;14.30;99.90;;;;;;5049501;28;20862;-79
2022/06/29 04:08:26;;;;;;;;;;;14.30;99.90;;;;;;5037595;28;19932;-79
2022/06/29 04:10:52;;;;;;;;;;;14.30;99.90;;;;;;5052629;28;19928;-79
2022/06/29 04:13:18;;;;;;;;;;;14.20;99.90;;;;;;5032091;28;20528;-78
2022/06/29 04:15:43;;;;;;;;;;;14.30;99.90;;;;;;5056489;28;19928;-79
2022/06/29 04:18:09;;;;;;;;;;;14.40;99.90;;;;;;5035380;28;19963;-78
2022/06/29 04:23:19;;;;;;;;;;;14.30;99.90;;;;;;5037730;28;19928;-79
2022/06/29 04:25:45;;;;;;;;;;;14.40;99.90;;;;;;5050708;28;19958;-78
2022/06/29 04:28:10;;;;;;;;;;;14.30;99.90;;;;;;5029326;28;20278;-79
2022/06/29 04:30:37;;;;;;;;;;;14.30;99.90;;;;;;5031634;28;19939;-79
2022/06/29 04:33:02;;;;;;;;;;;14.30;99.90;;;;;;5016131;28;19997;-78
2022/06/29 04:35:28;;;;;;;;;;;14.40;99.90;;;;;;5056688;28;19928;-79
2022/06/29 04:37:54;;;;;;;;;;;14.40;99.90;;;;;;5034540;28;19932;-79
2022/06/29 04:40:20;;;;;;;;;;;14.30;99.90;;;;;;5054594;28;20188;-78
2022/06/29 04:42:45;;;;;;;;;;;14.40;99.90;;;;;;5055554;28;19937;-79
2022/06/29 04:46:19;;;;;;;;;;;14.50;99.90;;;;;;5021523;28;20809;-78
2022/06/29 04:48:00;;;;;;;;;;;15.20;99.90;;;;;;5032419;28;20667;-78
2022/06/29 04:50:26;;;;;;;;;;;15.90;99.90;;;;;;5033100;28;19928;-79
2022/06/29 04:52:52;;;;;;;;;;;16.90;99.90;;;;;;5031398;28;20098;-79
2022/06/29 04:55:18;;;;;;;;;;;17.50;99.90;;;;;;5013418;28;20371;-79
2022/06/29 04:57:43;;;;;;;;;;;18.30;99.90;;;;;;5011731;28;19939;-80
2022/06/29 05:00:09;;;;;;;;;;;18.70;99.90;;;;;;5014168;28;19928;-78
2022/06/29 05:02:35;;;;;;;;;;;18.80;99.90;;;;;;5025751;28;19933;-79
2022/06/29 05:05:01;;;;;;;;;;;19.80;99.90;;;;;;5031870;28;19935;-79
2022/06/29 05:07:26;;;;;;;;;;;19.90;99.90;;;;;;5040747;28;19928;-79
2022/06/29 05:09:52;;;;;;;;;;;20.10;99.90;;;;;;5043508;28;20391;-79
2022/06/29 05:12:18;;;;;;;;;;;21.10;99.90;;;;;;5046914;28;20273;-79
2022/06/29 05:14:44;;;;;;;;;;;20.10;99.90;;;;;;5022504;28;19987;-80
2022/06/29 05:17:09;;;;;;;;;;;20.20;99.90;;;;;;5048313;28;19928;-79
2022/06/29 05:19:35;;;;;;;;;;;20.70;99.90;;;;;;5026225;28;20599;-79
2022/06/29 05:22:01;;;;;;;;;;;21.00;99.90;;;;;;5046396;28;20041;-79
2022/06/29 05:24:26;;;;;;;;;;;21.50;99.90;;;;;;5010879;28;19946;-78
2022/06/29 05:26:52;;;;;;;;;;;21.10;99.90;;;;;;5051738;28;19939;-79
2022/06/29 05:29:18;;;;;;;;;;;20.90;99.90;;;;;;5030788;28;20262;-79
2022/06/29 05:31:44;;;;;;;;;;;20.90;99.90;;;;;;5047860;28;20014;-79
2022/06/29 05:34:10;;;;;;;;;;;21.30;99.90;;;;;;5047233;28;19925;-80
2022/06/29 05:36:35;;;;;;;;;;;21.10;99.90;;;;;;5049366;28;19935;-78
2022/06/29 05:39:01;;;;;;;;;;;21.00;99.90;;;;;;5049384;28;19942;-78
2022/06/29 05:41:27;;;;;;;;;;;22.40;99.90;;;;;;5026602;28;20464;-79
2022/06/29 05:43:52;;;;;;;;;;;21.30;99.90;;;;;;5058934;28;19927;-79
2022/06/29 05:46:19;;;;;;;;;;;21.30;99.90;;;;;;5033398;28;20098;-79
2022/06/29 05:48:45;;;;;;;;;;;21.30;99.90;;;;;;5054865;28;19957;-79
2022/06/29 05:51:11;;;;;;;;;;;20.80;99.90;;;;;;5054356;28;19928;-79
2022/06/29 05:53:36;;;;;;;;;;;19.80;99.90;;;;;;5053559;28;19935;-79
2022/06/29 05:56:02;;;;;;;;;;;20.20;99.90;;;;;;5053848;28;19928;-80
2022/06/29 05:58:28;;;;;;;;;;;20.10;99.90;;;;;;5035682;28;20409;-78
2022/06/29 06:00:53;;;;;;;;;;;20.20;99.90;;;;;;5055432;28;19924;-79
2022/06/29 06:03:19;;;;;;;;;;;20.70;99.90;;;;;;5055249;28;20867;-79
2022/06/29 06:05:45;;;;;;;;;;;20.40;99.90;;;;;;5056667;28;19935;-79
2022/06/29 06:08:13;;;;;;;;;;;21.00;99.90;;;;;;5054439;28;19935;-79
2022/06/29 06:10:39;;;;;;;;;;;21.70;99.90;;;;;;5036182;28;19947;-78
2022/06/29 06:13:07;;;;;;;;;;;21.50;99.90;;;;;;5049232;28;20024;-80
2022/06/29 06:15:34;;;;;;;;;;;22.10;99.90;;;;;;5036712;28;20011;-80
2022/06/29 06:18:00;;;;;;;;;;;22.10;99.90;;;;;;5057279;28;19928;-81
2022/06/29 06:20:25;;;;;;;;;;;22.10;99.90;;;;;;5032736;28;19928;-81
2022/06/29 06:22:51;;;;;;;;;;;21.20;99.90;;;;;;5056736;28;20742;-80
2022/06/29 06:25:17;;;;;;;;;;;20.90;99.90;;;;;;5039687;28;19982;-81
2022/06/29 06:27:42;;;;;;;;;;;21.20;99.90;;;;;;5056660;28;19928;-81
2022/06/29 06:30:08;;;;;;;;;;;22.10;99.90;;;;;;5050980;28;20375;-80
2022/06/29 06:32:34;;;;;;;;;;;22.00;99.90;;;;;;5055739;28;19928;-81
2022/06/29 06:35:00;;;;;;;;;;;21.10;99.90;;;;;;5055032;28;19928;-79
2022/06/29 06:37:25;;;;;;;;;;;21.60;99.90;;;;;;5036663;28;19936;-80
2022/06/29 06:42:35;;;;;;;;;;;21.70;99.90;;;;;;5055514;28;19935;-80
2022/06/29 06:45:01;;;;;;;;;;;21.50;99.90;;;;;;5059019;28;19932;-79
2022/06/29 06:47:27;;;;;;;;;;;21.90;99.90;;;;;;5054020;28;19933;-79
2022/06/29 06:49:52;;;;;;;;;;;22.40;99.90;;;;;;5052082;28;19928;-80
2022/06/29 06:52:18;;;;;;;;;;;23.00;99.90;;;;;;5034481;28;20376;-79
2022/06/29 06:54:44;;;;;;;;;;;21.80;99.90;;;;;;5052139;28;19928;-80
2022/06/29 06:57:11;;;;;;;;;;;22.40;99.90;;;;;;5030842;28;20027;-79
2022/06/29 06:59:37;;;;;;;;;;;22.10;99.90;;;;;;5056873;28;19979;-80
2022/06/29 07:02:03;;;;;;;;;;;21.50;99.90;;;;;;5038990;28;19935;-80
2022/06/29 07:04:28;;;;;;;;;;;22.40;99.90;;;;;;5062158;28;19928;-79
2022/06/29 07:06:54;;;;;;;;;;;23.10;99.90;;;;;;5061825;28;20933;-80
2022/06/29 07:09:20;;;;;;;;;;;23.10;99.90;;;;;;5053580;28;19928;-80
2022/06/29 07:11:46;;;;;;;;;;;23.60;99.90;;;;;;5045456;28;20389;-79
2022/06/29 07:14:12;;;;;;;;;;;23.80;99.90;;;;;;5063699;28;19928;-79
2022/06/29 07:16:37;;;;;;;;;;;24.10;99.90;;;;;;5039151;28;19928;-79
2022/06/29 07:19:03;;;;;;;;;;;24.60;99.90;;;;;;5061157;28;20677;-81
2022/06/29 07:21:29;;;;;;;;;;;24.70;99.90;;;;;;5059880;28;20775;-80
2022/06/29 07:23:59;;;;;;;;;;;24.10;99.90;;;;;;5060018;28;19935;-80
2022/06/29 07:26:25;;;;;;;;;;;23.90;99.90;;;;;;5066040;28;20442;-81
2022/06/29 07:28:51;;;;;;;;;;;24.10;99.90;;;;;;5062802;28;19932;-80
2022/06/29 07:31:17;;;;;;;;;;;24.70;99.90;;;;;;5061321;28;19932;-80
2022/06/29 07:33:42;;;;;;;;;;;24.30;99.90;;;;;;5059100;28;19948;-80
2022/06/29 07:36:08;;;;;;;;;;;24.10;99.90;;;;;;5057207;28;19936;-80
2022/06/29 07:38:34;;;;;;;;;;;24.30;99.90;;;;;;5062435;28;19928;-79
2022/06/29 07:41:01;;;;;;;;;;;24.70;99.90;;;;;;5058634;28;20293;-80
2022/06/29 07:43:29;;;;;;;;;;;25.20;99.90;;;;;;5063153;28;19932;-79
2022/06/29 07:45:58;;;;;;;;;;;25.60;99.90;;;;;;5054233;28;20325;-81
2022/06/29 07:48:24;;;;;;;;;;;25.90;99.90;;;;;;5043042;28;19999;-81
2022/06/29 07:50:50;;;;;;;;;;;25.90;99.90;;;;;;5056483;28;20018;-81
2022/06/29 07:53:16;;;;;;;;;;;25.50;99.90;;;;;;5036089;28;19935;-81
2022/06/29 07:55:44;;;;;;;;;;;25.00;99.90;;;;;;5051366;28;19932;-80
2022/06/29 07:58:16;;;;;;;;;;;23.70;99.90;;;;;;5036896;28;19936;-81
2022/06/29 08:00:44;;;;;;;;;;;23.70;99.90;;;;;;5049940;28;19928;-81
2022/06/29 08:03:10;;;;;;;;;;;24.10;99.90;;;;;;5052521;28;20017;-81
2022/06/29 08:05:36;;;;;;;;;;;24.10;99.90;;;;;;5048361;28;20027;-82
2022/06/29 08:08:03;;;;;;;;;;;24.60;99.90;;;;;;5043024;28;20396;-81
2022/06/29 08:10:29;;;;;;;;;;;24.40;99.90;;;;;;5044271;28;19932;-82
2022/06/29 08:12:55;;;;;;;;;;;24.10;99.90;;;;;;5056737;28;19935;-82
2022/06/29 08:15:20;;;;;;;;;;;25.20;99.90;;;;;;5062549;28;20007;-81
2022/06/29 08:17:48;;;;;;;;;;;25.20;99.90;;;;;;5036684;28;20566;-81
2022/06/29 08:20:14;;;;;;;;;;;25.50;99.90;;;;;;5059123;28;19928;-80
2022/06/29 08:22:40;;;;;;;;;;;25.10;99.90;;;;;;5057888;28;19932;-82
2022/06/29 08:25:06;;;;;;;;;;;24.90;99.90;;;;;;5055940;28;19939;-81
2022/06/29 08:27:33;;;;;;;;;;;25.30;99.90;;;;;;5054808;28;19928;-81
2022/06/29 08:29:59;;;;;;;;;;;24.60;99.90;;;;;;5051093;28;19928;-81
2022/06/29 08:32:25;;;;;;;;;;;24.90;99.90;;;;;;5054583;28;20011;-82
2022/06/29 08:34:51;;;;;;;;;;;24.00;99.90;;;;;;5052066;28;19928;-81
2022/06/29 08:37:17;;;;;;;;;;;24.20;99.90;;;;;;5031426;28;20039;-82
2022/06/29 08:39:43;;;;;;;;;;;25.00;99.90;;;;;;5052125;28;20089;-81
2022/06/29 08:42:10;;;;;;;;;;;25.60;99.90;;;;;;5050546;28;20054;-81
2022/06/29 08:44:37;;;;;;;;;;;24.80;99.90;;;;;;5031921;28;19935;-81
2022/06/29 08:47:03;;;;;;;;;;;25.80;99.90;;;;;;5052205;28;19942;-81
2022/06/29 08:49:29;;;;;;;;;;;25.90;99.90;;;;;;5055512;28;20015;-80
2022/06/29 08:51:58;;;;;;;;;;;26.30;99.90;;;;;;5023086;28;19935;-80
2022/06/29 08:54:25;;;;;;;;;;;26.90;99.60;;;;;;5032911;28;19939;-82
2022/06/29 08:56:51;;;;;;;;;;;26.20;99.20;;;;;;5049987;28;19928;-82
2022/06/29 08:59:17;;;;;;;;;;;26.50;98.60;;;;;;5054878;28;19939;-81
2022/06/29 09:01:43;;;;;;;;;;;26.70;99.90;;;;;;5061086;28;19989;-81
2022/06/29 09:04:09;;;;;;;;;;;26.90;97.90;;;;;;5059036;28;20570;-81
2022/06/29 09:06:34;;;;;;;;;;;26.30;97.90;;;;;;5058005;28;20526;-81
2022/06/29 09:09:00;;;;;;;;;;;25.70;98.10;;;;;;5056404;28;20005;-81
2022/06/29 09:11:30;;;;;;;;;;;26.30;99.90;;;;;;5056653;28;19928;-81
2022/06/29 09:14:16;;;;;;;;;;;27.00;99.90;;;;;;5055774;28;20304;-81
2022/06/29 09:16:49;;;;;;;;;;;26.50;98.90;;;;;;5031590;28;19928;-82
2022/06/29 09:19:15;;;;;;;;;;;26.50;97.50;;;;;;5057549;28;20011;-81
2022/06/29 09:21:44;;;;;;;;;;;26.30;97.60;;;;;;5059719;28;19932;-81
2022/06/29 09:24:17;;;;;;;;;;;27.30;98.10;;;;;;5015794;28;19935;-81
2022/06/29 09:26:43;;;;;;;;;;;26.80;96.30;;;;;;5057302;28;20014;-81
2022/06/29 09:29:19;;;;;;;;;;;27.00;98.30;;;;;;5056998;28;19928;-81
2022/06/29 09:32:05;;;;;;;;;;;27.50;98.60;;;;;;5058794;28;19935;-82
2022/06/29 09:34:34;;;;;;;;;;;27.50;98.80;;;;;;5059234;28;20013;-81
2022/06/29 09:37:01;;;;;;;;;;;27.30;97.10;;;;;;5061033;28;19928;-81
2022/06/29 09:39:37;;;;;;;;;;;27.00;98.20;;;;;;5058969;28;20575;-81
2022/06/29 09:42:13;;;;;;;;;;;26.80;98.90;;;;;;5058014;28;20278;-82
2022/06/29 09:44:39;;;;;;;;;;;26.30;96.20;;;;;;5058954;28;20640;-81
2022/06/29 09:47:06;;;;;;;;;;;25.50;95.30;;;;;;5062606;28;20019;-80
2022/06/29 09:49:33;;;;;;;;;;;25.30;97.40;;;;;;5039237;28;20028;-82
2022/06/29 09:51:59;;;;;;;;;;;25.10;96.20;;;;;;5060504;28;19928;-81
2022/06/29 09:54:28;;;;;;;;;;;25.30;99.10;;;;;;5057742;28;20435;-81
2022/06/29 09:56:55;;;;;;;;;;;25.30;97.50;;;;;;5014671;28;19928;-81
2022/06/29 10:05:00;;;;;;;;;;;25.20;98.50;;;;;;5039791;28;20683;-81
2022/06/29 10:07:28;;;;;;;;;;;25.10;99.90;;;;;;5057468;28;19928;-81
2022/06/29 10:09:54;;;;;;;;;;;25.50;99.90;;;;;;5061323;28;19978;-81
2022/06/29 10:15:26;;;;;;;;;;;25.90;99.40;;;;;;5021639;28;19928;-81
2022/06/29 10:17:52;;;;;;;;;;;26.10;98.10;;;;;;5057278;28;20505;-82
2022/06/29 10:20:35;;;;;;;;;;;26.00;99.90;;;;;;5058282;28;19938;-81
2022/06/29 10:23:01;;;;;;;;;;;25.90;98.90;;;;;;5039007;28;19935;-81
2022/06/29 10:25:27;;;;;;;;;;;25.90;99.90;;;;;;5057315;28;19932;-81
2022/06/29 10:28:09;;;;;;;;;;;25.70;99.90;;;;;;5045900;28;20039;-81
2022/06/29 10:30:36;;;;;;;;;;;25.80;99.90;;;;;;5038851;28;19936;-80
2022/06/29 10:33:20;;;;;;;;;;;25.80;99.90;;;;;;5062040;28;19932;-82
2022/06/29 10:36:05;;;;;;;;;;;25.90;99.90;;;;;;5059949;28;20127;-81
2022/06/29 10:38:34;;;;;;;;;;;26.00;99.90;;;;;;5050009;28;19935;-81
2022/06/29 10:41:08;;;;;;;;;;;25.60;99.90;;;;;;5053940;28;19954;-81
2022/06/29 10:43:36;;;;;;;;;;;25.10;99.90;;;;;;5028706;28;19928;-81
2022/06/29 10:46:11;;;;;;;;;;;25.20;99.90;;;;;;5031312;28;19934;-82
2022/06/29 10:48:37;;;;;;;;;;;25.50;99.90;;;;;;5035318;28;19928;-81
2022/06/29 10:51:02;;;;;;;;;;;25.70;99.90;;;;;;5055902;28;20020;-82
2022/06/29 10:53:28;;;;;;;;;;;25.90;99.90;;;;;;5053725;28;19932;-82
2022/06/29 10:55:55;;;;;;;;;;;26.00;99.90;;;;;;5060836;28;20651;-82
2022/06/29 10:58:22;;;;;;;;;;;26.10;99.90;;;;;;5061185;28;20343;-80
2022/06/29 11:00:51;;;;;;;;;;;25.90;99.90;;;;;;5060085;28;20613;-81
2022/06/29 11:03:18;;;;;;;;;;;25.60;99.90;;;;;;5044698;28;20019;-82
2022/06/29 11:13:59;;;;;;;;;;;26.00;99.90;;;;;;5054907;28;20008;-80
2022/06/29 11:16:29;;;;;;;;;;;26.20;99.90;;;;;;5057868;28;19927;-81
2022/06/29 11:18:55;;;;;;;;;;;26.60;99.90;;;;;;5056345;28;20050;-82
2022/06/29 11:21:21;;;;;;;;;;;26.80;99.90;;;;;;5042080;28;20038;-81
2022/06/29 11:23:54;;;;;;;;;;;27.50;99.90;;;;;;5040900;28;20034;-82
2022/06/29 11:26:22;;;;;;;;;;;27.40;99.90;;;;;;5063006;28;19928;-83
2022/06/29 11:28:47;;;;;;;;;;;27.50;99.50;;;;;;5059150;28;20075;-81
2022/06/29 11:31:13;;;;;;;;;;;28.70;99.90;;;;;;5059463;28;20023;-84
2022/06/29 11:33:43;;;;;;;;;;;28.50;98.40;;;;;;5063555;28;20032;-80
2022/06/29 11:36:09;;;;;;;;;;;27.30;99.10;;;;;;5061655;28;20358;-82
2022/06/29 11:38:43;;;;;;;;;;;27.00;98.70;;;;;;5061197;28;19963;-81
2022/06/29 11:41:16;;;;;;;;;;;27.20;98.70;;;;;;5062745;28;20335;-81
2022/06/29 11:43:42;;;;;;;;;;;27.00;98.40;;;;;;5044692;28;19935;-82
2022/06/29 11:46:18;;;;;;;;;;;27.20;98.40;;;;;;5053701;28;21118;-81
2022/06/29 11:49:33;;;;;;;;;;;26.80;99.40;;;;;;5050557;28;19943;-82
2022/06/29 11:51:34;;;;;;;;;;;27.20;99.90;;;;;;5017210;28;19928;-81
2022/06/29 11:54:05;;;;;;;;;;;27.00;98.90;;;;;;5052710;28;19928;-81
2022/06/29 11:56:31;;;;;;;;;;;26.60;98.90;;;;;;5041998;28;19940;-80
2022/06/29 11:59:01;;;;;;;;;;;26.60;99.30;;;;;;5025658;28;19951;-79
2022/06/29 12:01:26;;;;;;;;;;;26.80;99.90;;;;;;5027768;28;20503;-81
2022/06/29 12:03:53;;;;;;;;;;;26.70;99.90;;;;;;5045213;28;20034;-81
2022/06/29 12:06:19;;;;;;;;;;;26.70;99.90;;;;;;5046405;28;19972;-81
2022/06/29 12:08:46;;;;;;;;;;;26.60;99.90;;;;;;5042511;28;20033;-82
2022/06/29 12:11:11;;;;;;;;;;;26.80;99.90;;;;;;5037145;28;19932;-80
2022/06/29 12:13:37;;;;;;;;;;;27.00;99.90;;;;;;4999429;28;20488;-80
2022/06/29 12:16:03;;;;;;;;;;;26.50;99.90;;;;;;5033157;28;20328;-81
2022/06/29 12:18:29;;;;;;;;;;;26.70;99.80;;;;;;5041844;28;19935;-81
2022/06/29 12:20:55;;;;;;;;;;;26.40;99.90;;;;;;5049108;28;19990;-81
2022/06/29 12:23:21;;;;;;;;;;;26.60;99.90;;;;;;5044309;28;19923;-80
2022/06/29 12:25:46;;;;;;;;;;;26.40;99.90;;;;;;5015358;28;19928;-80
2022/06/29 12:28:12;;;;;;;;;;;26.30;99.90;;;;;;5032710;28;20469;-81
2022/06/29 12:30:38;;;;;;;;;;;26.50;99.90;;;;;;5033907;28;20436;-82
2022/06/29 12:33:06;;;;;;;;;;;26.40;99.90;;;;;;4997965;28;19983;-81
2022/06/29 12:35:31;;;;;;;;;;;27.20;99.90;;;;;;5034912;28;21478;-81
2022/06/29 12:37:57;;;;;;;;;;;27.60;99.90;;;;;;5032395;28;19962;-82
2022/06/29 12:40:24;;;;;;;;;;;28.20;99.30;;;;;;5032155;28;19931;-82
2022/06/29 12:42:50;;;;;;;;;;;27.70;98.30;;;;;;5037317;28;19936;-81
2022/06/29 12:45:15;;;;;;;;;;;27.60;98.50;;;;;;5029763;28;20301;-81
2022/06/29 12:47:41;;;;;;;;;;;27.60;98.20;;;;;;5016345;28;19928;-81
2022/06/29 12:50:07;;;;;;;;;;;27.60;98.00;;;;;;5030843;28;19939;-81
2022/06/29 12:52:33;;;;;;;;;;;27.80;97.10;;;;;;5032923;28;19929;-80
2022/06/29 12:54:58;;;;;;;;;;;28.00;98.40;;;;;;5033080;28;19940;-81
2022/06/29 12:57:24;;;;;;;;;;;28.20;97.20;;;;;;5034815;28;19981;-81
2022/06/29 12:59:50;;;;;;;;;;;27.70;97.60;;;;;;5034049;28;20013;-79
2022/06/29 13:02:21;;;;;;;;;;;27.10;97.90;;;;;;5038618;28;20663;-80
2022/06/29 13:04:48;;;;;;;;;;;27.50;97.50;;;;;;5034672;28;19928;-80
2022/06/29 13:07:13;;;;;;;;;;;28.00;97.70;;;;;;5030407;28;20055;-82
2022/06/29 13:09:39;;;;;;;;;;;27.70;98.00;;;;;;5023002;28;20236;-80
2022/06/29 13:12:05;;;;;;;;;;;27.80;98.90;;;;;;5029031;28;19927;-81
2022/06/29 13:14:31;;;;;;;;;;;27.40;96.90;;;;;;5003514;28;19932;-81
2022/06/29 13:16:57;;;;;;;;;;;27.80;99.20;;;;;;5037771;28;20843;-80
2022/06/29 13:19:22;;;;;;;;;;;28.10;96.50;;;;;;5014045;28;19987;-82
2022/06/29 13:21:48;;;;;;;;;;;27.70;97.40;;;;;;5017958;28;20164;-81
2022/06/29 13:24:14;;;;;;;;;;;28.00;97.10;;;;;;5014709;28;19931;-81
2022/06/29 13:26:39;;;;;;;;;;;28.20;97.70;;;;;;5005291;28;19924;-80
2022/06/29 13:29:05;;;;;;;;;;;28.50;97.50;;;;;;5029511;28;20441;-82
2022/06/29 13:31:32;;;;;;;;;;;27.30;98.50;;;;;;5022118;28;20713;-82
2022/06/29 13:33:57;;;;;;;;;;;26.80;97.50;;;;;;5034407;28;19933;-82
2022/06/29 13:36:23;;;;;;;;;;;26.50;99.90;;;;;;5041567;28;19935;-80
2022/06/29 13:38:49;;;;;;;;;;;27.00;99.90;;;;;;5036210;28;19928;-80
2022/06/29 13:41:18;;;;;;;;;;;26.80;99.90;;;;;;5040052;28;20401;-80
2022/06/29 13:43:44;;;;;;;;;;;27.00;99.60;;;;;;5031596;28;19967;-82
2022/06/29 13:46:10;;;;;;;;;;;26.90;99.90;;;;;;5023729;28;20044;-82
2022/06/29 13:48:35;;;;;;;;;;;26.80;98.30;;;;;;5039018;28;19927;-80
2022/06/29 13:51:01;;;;;;;;;;;27.20;99.50;;;;;;5040893;28;20597;-81
2022/06/29 13:53:27;;;;;;;;;;;27.00;99.90;;;;;;5023508;28;19932;-80
2022/06/29 13:55:53;;;;;;;;;;;27.10;99.90;;;;;;5018641;28;20257;-80
2022/06/29 13:58:18;;;;;;;;;;;27.40;99.30;;;;;;5039628;28;20127;-80
2022/06/29 14:00:44;;;;;;;;;;;27.30;99.80;;;;;;5021458;28;19928;-79
2022/06/29 14:03:10;;;;;;;;;;;27.30;99.20;;;;;;5042037;28;20227;-80
2022/06/29 14:05:35;;;;;;;;;;;26.80;99.10;;;;;;5006600;28;19982;-82
2022/06/29 14:08:01;;;;;;;;;;;27.30;99.80;;;;;;5020664;28;20010;-81
2022/06/29 14:10:27;;;;;;;;;;;27.60;99.90;;;;;;5027383;28;20413;-81
2022/06/29 14:12:53;;;;;;;;;;;27.40;97.60;;;;;;5045668;28;20002;-80
2022/06/29 14:15:18;;;;;;;;;;;27.60;99.40;;;;;;5027384;28;19939;-80
2022/06/29 14:17:44;;;;;;;;;;;27.40;99.30;;;;;;5040744;28;19928;-81
2022/06/29 14:20:11;;;;;;;;;;;27.50;99.90;;;;;;5039354;28;19928;-81
2022/06/29 14:22:36;;;;;;;;;;;27.50;99.60;;;;;;5044553;28;19928;-82
2022/06/29 14:25:02;;;;;;;;;;;27.80;99.90;;;;;;5039438;28;19928;-81
2022/06/29 14:27:28;;;;;;;;;;;28.00;98.40;;;;;;5040500;28;19936;-82
2022/06/29 14:29:54;;;;;;;;;;;27.80;99.30;;;;;;5042245;28;19929;-79
2022/06/29 14:32:20;;;;;;;;;;;28.10;98.00;;;;;;5024179;28;19933;-81
2022/06/29 14:34:46;;;;;;;;;;;28.10;99.40;;;;;;5033396;28;19928;-82
2022/06/29 14:37:12;;;;;;;;;;;28.10;98.30;;;;;;5019404;28;20056;-82
2022/06/29 14:39:38;;;;;;;;;;;28.10;99.40;;;;;;5038908;28;19938;-84
2022/06/29 14:42:05;;;;;;;;;;;28.30;99.90;;;;;;5047140;28;20030;-83